Portada
METAR-TAF:

METAR-TAF

Aeropuertos :

Tegucigalpa, Honduras

Aeropuerto Internacional Toncontín

latitud: 14-03N, longitud: 087-13W, altitud: 994 m

Observación

Viento calma
Temperatura 15°C
Humedad 72%
Presión 1019 hPa
Visibilidad 10 km o más
Escasas nubes a una altura de 2800 ft

METAR: MHTG 2509OOZ 00000KT 9999 FEW028 15/10 Q1019 A3009 NOSIG

Hora: 03:46 (09:46 UTC)

Pronóstico

El informe se hizo hace 5 horas y 21 minutos, a las 04:25 UTC
Pronóstico válido del 25 a las 06 UTC al 26 a las 06 UTC
Viento 10 kt del norte
Visibilidad 10 km o más
Escasas nubes a una altura de 2500 ft
Evolucionando progresivamente
del 25 a las 12 UTC al 25 a las 14 UTC
Escasas nubes a una altura de 1200 ft
Nubes dispersas a una altura de 2600 ft
Evolucionando progresivamente
del 25 a las 18 UTC al 25 a las 20 UTC
Cielo despejado

TAF: MHTG 250425Z 2506/2606 36010KT 9999 FEW025 TX30/2521Z TN15/2512Z BECMG 2512/2514 FEW012 SCT026 BECMG 2518/2520 SKC

Observaciones y pronósticos meteorológicos de más de 4000 aeropuertos (mensajes METAR y TAF).

Los puntos amarillos y rojos representan las estaciones disponibles.

Ponga el ratón en el punto deseado para ver el nombre de la estación.

Haga clic para ver las observaciones y los pronósticos meteorológicos.

Para cambiar el mapa : haga clic en los botones verdes con una cruz de color negro para hacer un zoom, en el botón verde con un guión para alejar o en las flechas verdes para mapas adyacentes.


METAR-TAF: